Time;durP1;ratioP1;P1;durP2;ratioP2;P2;SDS_P1;SDS_P2;PMS_P1;PMS_P2;Temp;Humidity;BMP_temperature;BMP_pressure;BME280_temperature;BME280_humidity;BME280_pressure;Samples;Min_cycle;Max_cycle;Signal;HPM_P1;HPM_P2
2021/12/28 00:00:17;;;;;;;42.57;24.97;;;2.70;99.90;;;;;;5071970;28;20707;-53
2021/12/28 00:02:45;;;;;;;42.00;25.00;;;2.80;99.90;;;;;;5071505;28;20201;-49
2021/12/28 00:05:12;;;;;;;39.53;23.60;;;2.90;99.90;;;;;;5071453;28;20225;-53
2021/12/28 00:07:38;;;;;;;46.80;26.03;;;3.00;99.90;;;;;;5071251;28;20231;-48
2021/12/28 00:10:08;;;;;;;41.30;24.90;;;3.00;99.90;;;;;;5071776;28;20190;-51
2021/12/28 00:12:37;;;;;;;42.87;25.33;;;3.10;99.90;;;;;;5071233;28;20627;-51
2021/12/28 00:15:29;;;;;;;43.73;25.00;;;3.10;99.90;;;;;;5071542;28;20198;-51
2021/12/28 00:18:02;;;;;;;43.20;24.63;;;3.10;99.90;;;;;;5071087;28;20182;-49
2021/12/28 00:20:29;;;;;;;42.90;25.47;;;3.20;99.90;;;;;;5071765;28;20217;-50
2021/12/28 00:22:54;;;;;;;47.90;27.30;;;3.20;99.90;;;;;;5071394;28;20202;-55
2021/12/28 00:25:20;;;;;;;40.50;24.10;;;3.10;99.90;;;;;;5071240;28;20242;-53
2021/12/28 00:27:45;;;;;;;44.00;25.10;;;3.20;99.90;;;;;;5071664;28;20170;-51
2021/12/28 00:30:11;;;;;;;42.63;24.40;;;3.20;99.90;;;;;;5071150;28;20232;-52
2021/12/28 00:32:38;;;;;;;41.80;23.43;;;3.30;99.90;;;;;;5071627;28;20588;-52
2021/12/28 00:35:04;;;;;;;39.10;23.00;;;3.20;99.90;;;;;;5070886;28;20181;-51
2021/12/28 00:37:30;;;;;;;44.33;25.10;;;3.20;99.90;;;;;;5071560;28;20577;-49
2021/12/28 00:39:56;;;;;;;37.83;23.00;;;3.20;99.90;;;;;;5071095;28;20204;-52
2021/12/28 00:42:22;;;;;;;38.53;23.43;;;3.30;99.90;;;;;;5072885;28;20178;-54
2021/12/28 00:44:47;;;;;;;38.87;23.67;;;3.20;99.90;;;;;;5074873;28;20193;-50
2021/12/28 00:47:13;;;;;;;38.13;23.10;;;3.20;99.90;;;;;;5075142;28;20171;-50
2021/12/28 00:49:39;;;;;;;36.40;23.53;;;3.20;99.90;;;;;;5075333;28;20320;-50
2021/12/28 00:52:04;;;;;;;38.17;23.20;;;3.10;99.90;;;;;;5074970;28;20520;-54
2021/12/28 00:54:30;;;;;;;35.87;22.10;;;3.20;99.90;;;;;;5074998;28;20524;-51
2021/12/28 00:56:55;;;;;;;38.13;22.33;;;3.30;99.90;;;;;;5074798;28;20598;-51
2021/12/28 00:59:21;;;;;;;38.57;23.23;;;3.40;99.90;;;;;;5075055;28;20543;-55
2021/12/28 01:01:47;;;;;;;36.70;23.70;;;3.40;99.90;;;;;;5074724;28;20196;-53
2021/12/28 01:04:14;;;;;;;39.70;23.73;;;3.40;99.90;;;;;;5056847;28;20260;-50
2021/12/28 01:06:40;;;;;;;35.23;22.37;;;3.40;99.90;;;;;;5074986;28;20177;-56
2021/12/28 01:09:05;;;;;;;38.43;23.67;;;3.30;99.90;;;;;;5074647;28;20170;-49
2021/12/28 01:11:31;;;;;;;39.37;23.23;;;3.30;99.90;;;;;;5074864;28;20240;-51
2021/12/28 01:13:56;;;;;;;34.80;22.10;;;3.30;99.90;;;;;;5074206;28;20206;-52
2021/12/28 01:16:22;;;;;;;38.80;23.17;;;3.30;99.90;;;;;;5074738;28;20183;-52
2021/12/28 01:18:47;;;;;;;38.03;23.80;;;3.30;99.90;;;;;;5074438;28;20189;-53
2021/12/28 01:21:13;;;;;;;42.30;24.40;;;3.20;99.90;;;;;;5074765;28;20191;-49
2021/12/28 01:23:39;;;;;;;36.50;23.03;;;3.20;99.90;;;;;;5074457;28;20213;-53
2021/12/28 01:26:04;;;;;;;33.03;21.80;;;3.30;99.90;;;;;;5074111;28;20203;-50
2021/12/28 01:28:30;;;;;;;35.83;22.67;;;3.20;99.90;;;;;;5074660;28;20175;-55
2021/12/28 01:30:56;;;;;;;36.60;23.53;;;3.30;99.90;;;;;;5074195;28;20466;-51
2021/12/28 01:33:21;;;;;;;38.07;23.43;;;3.30;99.90;;;;;;5073380;28;20182;-51
2021/12/28 01:35:47;;;;;;;36.93;22.77;;;3.30;99.90;;;;;;5073787;28;20171;-57
2021/12/28 01:38:13;;;;;;;35.20;21.87;;;3.30;99.90;;;;;;5074535;28;20213;-53
2021/12/28 01:40:41;;;;;;;35.77;22.37;;;3.30;99.90;;;;;;5055812;28;20629;-49
2021/12/28 01:43:15;;;;;;;36.57;22.53;;;3.30;99.90;;;;;;5074225;28;20189;-52
2021/12/28 01:45:47;;;;;;;38.13;23.33;;;3.20;99.90;;;;;;5073927;28;20193;-51
2021/12/28 01:48:17;;;;;;;39.27;23.13;;;3.20;99.90;;;;;;5074279;28;20633;-54
2021/12/28 01:50:44;;;;;;;36.60;22.67;;;3.20;99.90;;;;;;5074241;28;20225;-52
2021/12/28 01:53:10;;;;;;;38.60;23.20;;;3.10;99.90;;;;;;5073375;28;20167;-54
2021/12/28 01:55:38;;;;;;;39.73;24.23;;;2.90;99.90;;;;;;5073323;28;20664;-53
2021/12/28 01:58:04;;;;;;;38.37;24.00;;;2.80;99.90;;;;;;5073498;28;20312;-53
2021/12/28 02:00:30;;;;;;;37.93;24.57;;;2.70;99.90;;;;;;5074056;28;20237;-55
2021/12/28 02:02:56;;;;;;;37.40;22.67;;;2.60;99.90;;;;;;5073655;28;20800;-51
2021/12/28 02:05:22;;;;;;;38.47;24.80;;;2.60;99.90;;;;;;5073610;28;20693;-55
2021/12/28 02:07:48;;;;;;;38.73;24.67;;;2.70;99.90;;;;;;5073751;28;20170;-51
2021/12/28 02:10:14;;;;;;;37.07;23.30;;;2.80;99.90;;;;;;5073415;28;20198;-51
2021/12/28 02:12:40;;;;;;;37.73;22.67;;;2.90;99.90;;;;;;5073892;28;20170;-53
2021/12/28 02:15:12;;;;;;;37.87;23.80;;;2.90;99.90;;;;;;5073116;28;20228;-51
2021/12/28 02:17:38;;;;;;;34.07;22.20;;;2.90;99.90;;;;;;5073885;28;20269;-54
2021/12/28 02:20:06;;;;;;;33.90;22.33;;;2.90;99.90;;;;;;5073201;28;20258;-50
2021/12/28 02:22:32;;;;;;;37.00;22.23;;;2.90;99.90;;;;;;5073663;28;20185;-49
2021/12/28 02:24:58;;;;;;;35.57;23.00;;;2.80;99.90;;;;;;5072721;28;20194;-54
2021/12/28 02:27:27;;;;;;;35.73;23.33;;;2.70;99.90;;;;;;5073882;28;20245;-51
2021/12/28 02:29:52;;;;;;;36.67;23.47;;;2.70;99.90;;;;;;5073456;28;20206;-50
2021/12/28 02:32:18;;;;;;;36.07;22.93;;;2.70;99.90;;;;;;5073152;28;20227;-48
2021/12/28 02:34:45;;;;;;;38.90;25.13;;;2.70;99.90;;;;;;5073193;28;20178;-54
2021/12/28 02:37:11;;;;;;;37.17;23.87;;;2.60;99.90;;;;;;5072891;28;20174;-54
2021/12/28 02:39:36;;;;;;;36.23;22.27;;;2.60;99.90;;;;;;5073155;28;20683;-53
2021/12/28 02:42:02;;;;;;;39.67;24.97;;;2.70;99.90;;;;;;5072927;28;20210;-51
2021/12/28 02:44:28;;;;;;;37.07;24.03;;;2.70;99.90;;;;;;5072877;28;20260;-56
2021/12/28 02:46:54;;;;;;;39.07;23.87;;;2.70;99.90;;;;;;5072960;28;20647;-56
2021/12/28 02:49:19;;;;;;;34.93;22.83;;;2.80;99.90;;;;;;5072771;28;20170;-56
2021/12/28 02:51:45;;;;;;;38.10;23.73;;;2.80;99.90;;;;;;5073043;28;20252;-54
2021/12/28 02:54:10;;;;;;;39.47;25.57;;;2.90;99.90;;;;;;5072254;28;20174;-56
2021/12/28 02:56:36;;;;;;;39.50;24.60;;;3.00;99.90;;;;;;5073148;28;20175;-53
2021/12/28 02:59:02;;;;;;;36.73;24.10;;;3.10;99.90;;;;;;5072543;28;20651;-54
2021/12/28 03:01:29;;;;;;;36.23;23.33;;;3.00;99.90;;;;;;5072845;28;20187;-54
2021/12/28 03:04:05;;;;;;;37.47;23.93;;;3.00;99.90;;;;;;5072302;28;20225;-51
2021/12/28 03:06:32;;;;;;;37.80;23.37;;;3.10;99.90;;;;;;5071948;28;20228;-56
2021/12/28 03:08:59;;;;;;;37.50;23.67;;;3.00;99.90;;;;;;5072903;28;20196;-53
2021/12/28 03:11:27;;;;;;;36.30;23.23;;;3.10;99.90;;;;;;5072193;28;20199;-55
2021/12/28 03:13:56;;;;;;;36.40;23.60;;;3.10;99.90;;;;;;5072404;28;20558;-53
2021/12/28 03:16:23;;;;;;;40.13;24.60;;;3.20;99.90;;;;;;5072139;28;20171;-57
2021/12/28 03:18:49;;;;;;;38.73;24.63;;;3.30;99.90;;;;;;5072795;28;20667;-54
2021/12/28 03:21:17;;;;;;;35.67;24.00;;;3.20;99.90;;;;;;5072024;28;20244;-52
2021/12/28 03:23:42;;;;;;;36.27;23.30;;;3.20;99.90;;;;;;5072302;28;20198;-56
2021/12/28 03:26:09;;;;;;;39.10;24.57;;;3.20;99.90;;;;;;5071687;28;20171;-55
2021/12/28 03:28:39;;;;;;;39.90;24.30;;;3.20;99.90;;;;;;5072398;28;20173;-55
2021/12/28 03:31:08;;;;;;;37.10;23.57;;;3.20;99.90;;;;;;5072517;28;20769;-55
2021/12/28 03:33:36;;;;;;;38.23;24.30;;;3.20;99.90;;;;;;5071921;28;20170;-55
2021/12/28 03:36:04;;;;;;;39.33;24.70;;;3.20;99.90;;;;;;5071936;28;20181;-56
2021/12/28 03:38:29;;;;;;;36.63;23.60;;;3.20;99.90;;;;;;5071189;28;20174;-53
2021/12/28 03:40:55;;;;;;;36.43;24.73;;;;;;;;;;5209907;22;20228;-56
2021/12/28 03:43:22;;;;;;;38.50;24.37;;;3.30;99.90;;;;;;5112191;28;20572;-58
2021/12/28 03:45:48;;;;;;;37.37;23.93;;;3.30;99.90;;;;;;5111916;28;20187;-55
2021/12/28 03:48:14;;;;;;;38.10;23.67;;;3.30;99.90;;;;;;5111997;28;20236;-55
2021/12/28 03:50:40;;;;;;;38.23;24.67;;;3.30;99.90;;;;;;5112501;28;20222;-58
2021/12/28 03:53:07;;;;;;;42.90;25.20;;;3.30;99.90;;;;;;5112449;28;20173;-58
2021/12/28 03:55:34;;;;;;;35.20;22.87;;;3.30;99.90;;;;;;5111881;28;20242;-56
2021/12/28 03:58:00;;;;;;;39.80;25.80;;;3.40;99.90;;;;;;5111306;28;20172;-56
2021/12/28 04:00:29;;;;;;;36.30;23.03;;;3.40;99.90;;;;;;5110524;28;20185;-52
2021/12/28 04:02:55;;;;;;;39.07;24.53;;;3.40;99.90;;;;;;5112105;28;20169;-51
2021/12/28 04:05:20;;;;;;;37.83;23.83;;;3.30;99.90;;;;;;5111657;28;20703;-52
2021/12/28 04:07:47;;;;;;;37.17;24.20;;;3.30;99.90;;;;;;5112262;28;20173;-49
2021/12/28 04:10:15;;;;;;;39.13;24.53;;;3.20;99.90;;;;;;5112175;28;20181;-50
2021/12/28 04:12:42;;;;;;;39.20;25.03;;;3.50;99.90;;;;;;5111228;28;20157;-55
2021/12/28 04:15:11;;;;;;;38.17;24.17;;;3.20;99.90;;;;;;5110568;28;20169;-50
2021/12/28 04:17:38;;;;;;;39.07;24.83;;;3.10;99.90;;;;;;5110965;28;20177;-50
2021/12/28 04:20:10;;;;;;;37.30;24.10;;;3.10;99.90;;;;;;5112224;28;20235;-54
2021/12/28 04:22:35;;;;;;;36.60;23.10;;;3.20;99.90;;;;;;5111695;28;20207;-52
2021/12/28 04:25:01;;;;;;;44.70;27.43;;;3.40;99.90;;;;;;5111899;28;20240;-50
2021/12/28 04:27:27;;;;;;;38.47;24.80;;;3.20;99.90;;;;;;5111345;28;20533;-49
2021/12/28 04:29:52;;;;;;;41.43;25.10;;;3.10;99.90;;;;;;5110681;28;20246;-53
2021/12/28 04:32:18;;;;;;;38.20;23.87;;;3.20;99.90;;;;;;5111193;28;20173;-49
2021/12/28 04:34:43;;;;;;;37.43;24.17;;;3.20;99.90;;;;;;5110415;28;20180;-51
2021/12/28 04:37:09;;;;;;;42.67;26.30;;;3.30;99.90;;;;;;5110434;28;20165;-52
2021/12/28 04:39:35;;;;;;;38.60;23.33;;;3.20;99.90;;;;;;5110375;28;20188;-52
2021/12/28 04:42:00;;;;;;;40.93;26.07;;;3.20;99.90;;;;;;5110110;28;20212;-49
2021/12/28 04:44:26;;;;;;;36.27;23.37;;;3.20;99.90;;;;;;5111244;28;20193;-49
2021/12/28 04:46:53;;;;;;;38.70;23.33;;;3.20;99.90;;;;;;5112030;28;20173;-50
2021/12/28 04:49:21;;;;;;;34.87;23.23;;;3.10;99.90;;;;;;5111775;28;20173;-49
2021/12/28 04:51:48;;;;;;;39.57;24.50;;;3.10;99.90;;;;;;5111551;28;20181;-50
2021/12/28 04:54:15;;;;;;;39.70;24.57;;;3.20;99.90;;;;;;5111619;28;20541;-51
2021/12/28 04:56:41;;;;;;;36.40;23.43;;;3.30;99.90;;;;;;5111469;28;20200;-49
2021/12/28 04:59:07;;;;;;;37.17;23.47;;;3.30;99.90;;;;;;5111738;28;20176;-49
2021/12/28 05:01:33;;;;;;;38.40;24.77;;;3.30;99.90;;;;;;5111346;28;20185;-49
2021/12/28 05:03:59;;;;;;;38.37;26.03;;;3.20;99.90;;;;;;5111487;28;20222;-50
2021/12/28 05:06:25;;;;;;;42.60;27.13;;;3.10;99.90;;;;;;5111186;28;20165;-50
2021/12/28 05:08:50;;;;;;;41.07;25.50;;;3.10;99.90;;;;;;5111808;28;20665;-52
2021/12/28 05:11:16;;;;;;;39.33;24.33;;;3.20;99.90;;;;;;5111698;28;20284;-49
2021/12/28 05:13:42;;;;;;;39.97;24.27;;;3.30;99.90;;;;;;5110681;28;20172;-49
2021/12/28 05:16:10;;;;;;;36.63;24.13;;;3.30;99.90;;;;;;5111331;28;20169;-49
2021/12/28 05:18:35;;;;;;;39.00;24.27;;;3.30;99.90;;;;;;5111276;28;20162;-50
2021/12/28 05:21:01;;;;;;;36.30;22.83;;;3.30;99.90;;;;;;5111467;28;20189;-54
2021/12/28 05:23:26;;;;;;;36.23;22.73;;;3.30;99.90;;;;;;5111139;28;20338;-50
2021/12/28 05:25:52;;;;;;;39.73;24.37;;;3.40;99.90;;;;;;5111422;28;20169;-50
2021/12/28 05:28:17;;;;;;;39.43;24.90;;;3.40;99.90;;;;;;5111269;28;20669;-53
2021/12/28 05:30:43;;;;;;;36.97;25.07;;;3.40;99.90;;;;;;5114587;28;20729;-49
2021/12/28 05:33:09;;;;;;;37.13;24.83;;;;;;;;;;5115249;28;20162;-49
2021/12/28 05:35:35;;;;;;;37.63;24.40;;;;;;;;;;5114303;28;20210;-49
2021/12/28 05:38:01;;;;;;;36.53;23.87;;;3.50;99.90;;;;;;5115108;28;20193;-49
2021/12/28 05:40:26;;;;;;;36.73;24.83;;;3.50;99.90;;;;;;5114538;28;20692;-52
2021/12/28 05:42:52;;;;;;;36.77;24.20;;;3.50;99.90;;;;;;5114541;28;20658;-49
2021/12/28 05:45:18;;;;;;;32.70;22.87;;;3.40;99.90;;;;;;5113782;28;20691;-50
2021/12/28 05:47:43;;;;;;;40.03;24.87;;;3.40;99.90;;;;;;5114599;28;20234;-50
2021/12/28 05:50:09;;;;;;;34.83;22.90;;;3.40;99.90;;;;;;5114908;28;20189;-54
2021/12/28 05:52:35;;;;;;;35.30;22.47;;;3.50;99.90;;;;;;5114592;28;20173;-52
2021/12/28 05:55:01;;;;;;;35.10;21.73;;;3.50;99.90;;;;;;5114618;28;20695;-50
2021/12/28 05:57:27;;;;;;;34.30;22.63;;;3.50;99.90;;;;;;5114297;28;20169;-49
2021/12/28 05:59:52;;;;;;;38.30;23.63;;;3.40;99.90;;;;;;5114636;28;20660;-50
2021/12/28 06:02:18;;;;;;;34.60;23.03;;;3.20;99.90;;;;;;5114243;28;20845;-54
2021/12/28 06:04:44;;;;;;;33.90;22.80;;;3.20;99.90;;;;;;5114212;28;20200;-48
2021/12/28 06:07:09;;;;;;;33.40;22.63;;;3.10;99.90;;;;;;5114407;28;20165;-50
2021/12/28 06:09:35;;;;;;;36.73;22.87;;;3.00;99.90;;;;;;5114300;28;20665;-50
2021/12/28 06:12:00;;;;;;;35.93;22.67;;;2.90;99.90;;;;;;5114325;28;20224;-51
2021/12/28 06:14:26;;;;;;;35.50;22.27;;;2.80;99.90;;;;;;5113790;28;20172;-49
2021/12/28 06:16:51;;;;;;;36.07;23.37;;;2.90;99.90;;;;;;5114398;28;20579;-49
2021/12/28 06:19:17;;;;;;;36.33;23.57;;;2.80;99.90;;;;;;5113908;28;20169;-49
2021/12/28 06:21:43;;;;;;;36.17;22.23;;;2.80;99.90;;;;;;5113176;28;20239;-50
2021/12/28 06:24:08;;;;;;;37.13;22.70;;;2.80;99.90;;;;;;5113612;28;20185;-50
2021/12/28 06:26:35;;;;;;;37.40;24.17;;;2.80;99.90;;;;;;5114057;28;20228;-50
2021/12/28 06:29:03;;;;;;;33.67;21.30;;;2.70;99.90;;;;;;5114266;28;20161;-49
2021/12/28 06:31:29;;;;;;;37.40;23.63;;;2.60;99.90;;;;;;5113809;28;20195;-51
2021/12/28 06:33:56;;;;;;;37.67;23.03;;;2.70;99.90;;;;;;5113870;28;20650;-47
2021/12/28 06:36:22;;;;;;;39.70;24.50;;;2.60;99.90;;;;;;5113595;28;20218;-49
2021/12/28 06:38:48;;;;;;;36.90;22.77;;;2.70;99.90;;;;;;5113859;28;20176;-54
2021/12/28 06:41:14;;;;;;;37.23;24.77;;;2.60;99.90;;;;;;5112512;28;20216;-52
2021/12/28 06:43:39;;;;;;;36.30;23.03;;;2.70;99.90;;;;;;5113815;28;20561;-50
2021/12/28 06:46:05;;;;;;;36.73;21.93;;;2.70;99.90;;;;;;5113427;28;20161;-50
2021/12/28 06:48:31;;;;;;;33.57;22.20;;;2.80;99.90;;;;;;5113564;28;20169;-49
2021/12/28 06:50:56;;;;;;;35.30;22.17;;;2.80;99.90;;;;;;5113722;28;20195;-50
2021/12/28 06:53:22;;;;;;;35.03;22.60;;;2.80;99.90;;;;;;5112732;28;22351;-49
2021/12/28 06:55:47;;;;;;;36.67;23.57;;;2.80;99.90;;;;;;5113074;28;20173;-51
2021/12/28 06:58:13;;;;;;;38.13;23.63;;;2.90;99.90;;;;;;5113418;28;20173;-53
2021/12/28 07:00:39;;;;;;;35.37;21.60;;;2.90;99.90;;;;;;5113676;28;20189;-51
2021/12/28 07:03:05;;;;;;;35.97;23.20;;;2.90;99.90;;;;;;5112114;28;20204;-57
2021/12/28 07:05:32;;;;;;;37.27;24.37;;;2.80;99.90;;;;;;5110268;28;20689;-51
2021/12/28 07:07:59;;;;;;;36.47;23.87;;;2.70;99.90;;;;;;5111838;28;20170;-56
2021/12/28 07:10:25;;;;;;;36.77;23.20;;;2.70;99.90;;;;;;5112164;28;20201;-50
2021/12/28 07:12:50;;;;;;;36.53;22.00;;;2.80;99.90;;;;;;5093445;28;20255;-55
2021/12/28 07:15:17;;;;;;;36.27;23.10;;;2.70;99.90;;;;;;5097863;28;20268;-50
2021/12/28 07:17:43;;;;;;;34.40;22.33;;;2.60;99.90;;;;;;5106222;28;20178;-50
2021/12/28 07:20:09;;;;;;;39.20;24.33;;;2.70;99.90;;;;;;5105833;28;20701;-52
2021/12/28 07:22:36;;;;;;;35.23;21.97;;;2.70;99.90;;;;;;5091466;28;20176;-56
2021/12/28 07:25:02;;;;;;;34.77;21.90;;;2.80;99.90;;;;;;5099126;28;20208;-53
2021/12/28 07:27:27;;;;;;;32.57;21.10;;;3.00;99.90;;;;;;5106369;28;20165;-50
2021/12/28 07:29:53;;;;;;;36.17;22.30;;;3.20;99.90;;;;;;5098070;28;20181;-50
2021/12/28 07:32:18;;;;;;;35.00;21.63;;;3.20;99.90;;;;;;5112359;28;20582;-53
2021/12/28 07:34:44;;;;;;;33.37;21.27;;;3.10;99.90;;;;;;5111885;28;20546;-54
2021/12/28 07:37:09;;;;;;;33.97;22.20;;;2.90;99.90;;;;;;5111362;28;20188;-54
2021/12/28 07:39:35;;;;;;;34.90;21.90;;;2.80;99.90;;;;;;5111566;28;20271;-49
2021/12/28 07:42:01;;;;;;;35.47;22.07;;;2.80;99.90;;;;;;5110918;28;20231;-54
2021/12/28 07:44:26;;;;;;;33.37;21.63;;;2.70;99.90;;;;;;5112057;28;20331;-58
2021/12/28 07:46:52;;;;;;;35.70;22.43;;;2.60;99.90;;;;;;5112516;28;20166;-56
2021/12/28 07:49:18;;;;;;;31.20;20.40;;;2.60;99.90;;;;;;5112380;28;20252;-50
2021/12/28 07:51:43;;;;;;;35.90;21.97;;;2.60;99.90;;;;;;5111625;28;20613;-52
2021/12/28 07:54:09;;;;;;;33.27;21.53;;;2.60;99.90;;;;;;5111644;28;20176;-57
2021/12/28 07:56:35;;;;;;;29.43;19.47;;;2.60;99.90;;;;;;5112504;28;20169;-57
2021/12/28 07:59:00;;;;;;;31.80;19.43;;;2.80;99.90;;;;;;5112621;28;20196;-49
2021/12/28 08:01:26;;;;;;;31.97;20.43;;;2.80;99.90;;;;;;5111978;28;20197;-48
2021/12/28 08:03:51;;;;;;;30.50;19.70;;;3.00;99.90;;;;;;5112404;28;20200;-54
2021/12/28 08:06:17;;;;;;;30.97;19.30;;;3.20;99.90;;;;;;5111762;28;20170;-53
2021/12/28 08:08:43;;;;;;;31.70;20.20;;;3.20;99.90;;;;;;5112449;28;20202;-52
2021/12/28 08:11:09;;;;;;;27.37;18.60;;;3.20;99.90;;;;;;5111720;28;20238;-54
2021/12/28 08:13:34;;;;;;;30.57;19.90;;;3.20;99.90;;;;;;5112366;28;20173;-50
2021/12/28 08:16:00;;;;;;;30.87;20.13;;;3.30;99.90;;;;;;5111796;28;20177;-56
2021/12/28 08:18:25;;;;;;;29.77;19.00;;;3.30;99.90;;;;;;5112020;28;20187;-49
2021/12/28 08:20:51;;;;;;;28.33;18.87;;;3.30;99.90;;;;;;5112189;28;20677;-56
2021/12/28 08:23:17;;;;;;;30.10;19.80;;;3.40;99.90;;;;;;5110513;28;20625;-55
2021/12/28 08:25:42;;;;;;;32.40;19.57;;;3.50;99.90;;;;;;5108032;28;20249;-54
2021/12/28 08:28:08;;;;;;;29.47;19.13;;;3.60;99.90;;;;;;5091599;28;20238;-49
2021/12/28 08:30:36;;;;;;;29.93;19.37;;;3.50;99.90;;;;;;5107503;28;20190;-58
2021/12/28 08:33:06;;;;;;;29.27;19.70;;;3.50;99.90;;;;;;5098517;28;20541;-52
2021/12/28 08:35:34;;;;;;;30.40;20.47;;;3.60;99.90;;;;;;5099731;28;20173;-49
2021/12/28 08:38:00;;;;;;;27.93;18.57;;;3.50;99.90;;;;;;5106236;28;20575;-50
2021/12/28 08:40:26;;;;;;;29.03;20.10;;;3.40;99.90;;;;;;5097913;28;20291;-58
2021/12/28 08:42:52;;;;;;;32.63;20.70;;;3.30;99.90;;;;;;5104578;28;20178;-58
2021/12/28 08:45:18;;;;;;;32.93;20.23;;;3.20;99.90;;;;;;5090054;28;20205;-59
2021/12/28 08:47:46;;;;;;;30.17;20.70;;;3.20;99.90;;;;;;5090936;28;20170;-60
2021/12/28 08:50:12;;;;;;;30.83;20.23;;;3.00;99.90;;;;;;5091113;28;20251;-55
2021/12/28 08:52:38;;;;;;;33.60;21.80;;;2.70;99.90;;;;;;5091634;28;20596;-60
2021/12/28 08:55:05;;;;;;;33.90;21.57;;;2.70;99.90;;;;;;5091153;28;20170;-58
2021/12/28 08:57:31;;;;;;;34.23;22.17;;;3.00;99.90;;;;;;5090481;28;20173;-56
2021/12/28 08:59:57;;;;;;;35.60;22.17;;;3.20;99.90;;;;;;5091058;28;20173;-56
2021/12/28 09:02:23;;;;;;;34.40;22.03;;;3.30;99.90;;;;;;5091155;28;20196;-56
2021/12/28 09:04:48;;;;;;;33.87;21.47;;;3.50;99.90;;;;;;5094698;28;20202;-56
2021/12/28 09:07:16;;;;;;;35.57;22.20;;;3.60;99.90;;;;;;5094950;28;20177;-55
2021/12/28 09:09:42;;;;;;;33.10;21.67;;;3.70;99.90;;;;;;5095245;28;20165;-55
2021/12/28 09:12:08;;;;;;;33.73;22.30;;;3.80;99.90;;;;;;5094542;28;20223;-56
2021/12/28 09:14:34;;;;;;;36.77;22.60;;;3.80;99.90;;;;;;5093942;28;20209;-54
2021/12/28 09:17:00;;;;;;;32.63;22.30;;;3.90;99.90;;;;;;5094926;28;20307;-55
2021/12/28 09:19:25;;;;;;;32.67;21.27;;;4.00;99.90;;;;;;5094483;28;20174;-50
2021/12/28 09:21:51;;;;;;;35.57;21.47;;;4.10;99.90;;;;;;5093488;28;20190;-45
2021/12/28 09:24:16;;;;;;;32.13;20.30;;;4.10;99.90;;;;;;5092675;28;20205;-54
2021/12/28 09:26:42;;;;;;;31.40;20.33;;;4.10;99.90;;;;;;5094951;28;20171;-52
2021/12/28 09:29:08;;;;;;;33.97;20.47;;;4.10;99.90;;;;;;5094590;28;20253;-56
2021/12/28 09:31:34;;;;;;;33.47;22.83;;;4.20;99.90;;;;;;5094851;28;20299;-50
2021/12/28 09:34:00;;;;;;;28.90;19.30;;;4.20;99.90;;;;;;5094508;28;20203;-54
2021/12/28 09:36:26;;;;;;;28.40;18.37;;;4.30;99.90;;;;;;5100427;28;20226;-51
2021/12/28 09:38:51;;;;;;;37.97;24.43;;;4.10;99.90;;;;;;5114921;28;20204;-55
2021/12/28 09:41:17;;;;;;;37.90;24.13;;;4.00;99.90;;;;;;5115588;28;20289;-51
2021/12/28 09:43:43;;;;;;;36.47;23.00;;;3.90;99.90;;;;;;5114965;28;20204;-50
2021/12/28 09:46:09;;;;;;;35.83;24.07;;;3.50;99.90;;;;;;5114273;28;20165;-53
2021/12/28 09:48:36;;;;;;;36.10;23.13;;;3.30;99.90;;;;;;5114732;28;20157;-54
2021/12/28 09:51:03;;;;;;;38.23;24.43;;;3.30;99.90;;;;;;5114835;28;20260;-55
2021/12/28 09:53:29;;;;;;;34.17;22.33;;;3.30;99.90;;;;;;5106876;28;20192;-55
2021/12/28 09:55:55;;;;;;;33.33;22.03;;;3.40;99.90;;;;;;5123702;28;20189;-56
2021/12/28 09:58:21;;;;;;;36.97;22.73;;;5.80;99.90;;;;;;5122569;28;20238;-54
2021/12/28 10:00:47;;;;;;;33.27;22.57;;;3.90;99.90;;;;;;5120340;28;20193;-55
2021/12/28 10:03:14;;;;;;;36.53;22.90;;;5.80;99.90;;;;;;5119272;28;20660;-55
2021/12/28 10:05:39;;;;;;;35.77;22.70;;;3.70;99.90;;;;;;5115057;28;20212;-55
2021/12/28 10:08:06;;;;;;;35.90;22.03;;;3.70;99.90;;;;;;5114613;28;20178;-57
2021/12/28 10:10:41;;;;;;;35.77;23.30;;;3.70;99.90;;;;;;5114702;28;20185;-54
2021/12/28 10:13:10;;;;;;;36.20;22.40;;;3.70;99.90;;;;;;5115709;28;20169;-56
2021/12/28 10:15:39;;;;;;;32.70;21.33;;;3.80;99.90;;;;;;5114108;28;20168;-56
2021/12/28 10:18:08;;;;;;;37.03;23.67;;;3.80;99.90;;;;;;5114727;28;20169;-56
2021/12/28 10:20:37;;;;;;;39.57;24.73;;;5.90;99.90;;;;;;5114431;28;20205;-53
2021/12/28 10:23:10;;;;;;;40.03;24.20;;;3.40;99.90;;;;;;5113237;28;20184;-50
2021/12/28 10:25:41;;;;;;;35.37;23.27;;;3.40;99.90;;;;;;5113914;28;20201;-54
2021/12/28 10:28:18;;;;;;;34.23;22.73;;;3.50;99.90;;;;;;5114485;28;20199;-52
2021/12/28 10:30:51;;;;;;;36.40;23.80;;;3.40;99.90;;;;;;5113832;28;20196;-55
2021/12/28 10:33:24;;;;;;;37.13;23.67;;;3.20;99.90;;;;;;5111879;28;20576;-55
2021/12/28 10:35:50;;;;;;;35.03;22.67;;;2.90;99.90;;;;;;5110353;28;20204;-52
2021/12/28 10:38:26;;;;;;;41.67;24.27;;;3.00;99.90;;;;;;5107090;28;20170;-54
2021/12/28 10:41:10;;;;;;;37.97;25.20;;;2.90;99.90;;;;;;5108125;28;20216;-52
2021/12/28 10:43:39;;;;;;;38.57;24.50;;;2.90;99.90;;;;;;5096563;28;20184;-52
2021/12/28 10:46:08;;;;;;;43.07;26.13;;;3.00;99.90;;;;;;5093261;28;20213;-49
2021/12/28 10:48:38;;;;;;;39.17;25.73;;;3.20;99.90;;;;;;5105352;28;20192;-52
2021/12/28 10:51:13;;;;;;;43.23;26.57;;;3.10;99.90;;;;;;5111304;28;20192;-55
2021/12/28 10:54:01;;;;;;;41.27;25.07;;;3.10;99.90;;;;;;5112936;28;20169;-56
2021/12/28 10:56:29;;;;;;;39.10;26.00;;;3.10;99.90;;;;;;5104408;28;20170;-51
2021/12/28 10:58:54;;;;;;;44.37;27.17;;;2.90;99.90;;;;;;5103136;28;20212;-55
2021/12/28 11:01:23;;;;;;;45.33;26.37;;;2.60;99.90;;;;;;5106641;28;20701;-51
2021/12/28 11:03:54;;;;;;;44.57;26.93;;;2.50;99.90;;;;;;5092822;28;20205;-53
2021/12/28 11:06:31;;;;;;;42.97;27.70;;;2.50;99.90;;;;;;5106836;28;20173;-52
2021/12/28 11:09:00;;;;;;;48.83;26.87;;;2.60;99.90;;;;;;5109959;28;20174;-56
2021/12/28 11:11:26;;;;;;;39.93;24.87;;;2.70;99.90;;;;;;5099476;28;20971;-55
2021/12/28 11:13:57;;;;;;;52.30;28.10;;;2.80;99.90;;;;;;5114764;28;20181;-52
2021/12/28 11:16:26;;;;;;;46.23;26.80;;;2.80;99.90;;;;;;5114175;28;20507;-57
2021/12/28 11:18:53;;;;;;;41.87;26.33;;;2.80;99.90;;;;;;5111973;28;20562;-55
2021/12/28 11:21:32;;;;;;;44.77;27.03;;;2.80;99.90;;;;;;5112373;28;20204;-53
2021/12/28 11:24:13;;;;;;;39.70;24.43;;;2.90;99.90;;;;;;5109746;28;20609;-53
2021/12/28 11:26:42;;;;;;;45.07;25.83;;;2.90;99.90;;;;;;5101818;28;20180;-55
2021/12/28 11:29:23;;;;;;;42.03;25.70;;;3.00;99.90;;;;;;5101174;28;20699;-56
2021/12/28 11:32:01;;;;;;;41.30;25.40;;;3.00;99.90;;;;;;5114715;28;20189;-55
2021/12/28 11:34:38;;;;;;;41.33;24.50;;;3.10;99.90;;;;;;5102763;28;20247;-58
2021/12/28 11:37:08;;;;;;;43.67;24.73;;;3.20;99.90;;;;;;5105413;28;20181;-55
2021/12/28 11:39:38;;;;;;;40.67;25.67;;;3.10;99.90;;;;;;5110541;28;20182;-52
2021/12/28 11:42:05;;;;;;;38.80;22.67;;;3.00;99.90;;;;;;5102922;28;20752;-51
2021/12/28 11:44:31;;;;;;;31.60;20.83;;;3.00;99.90;;;;;;5092906;28;20700;-53
2021/12/28 11:46:59;;;;;;;35.57;22.43;;;3.20;99.90;;;;;;5097276;28;20165;-56
2021/12/28 11:49:28;;;;;;;36.77;22.93;;;3.40;99.90;;;;;;5114286;28;20641;-58
2021/12/28 11:51:59;;;;;;;36.03;22.73;;;3.50;99.90;;;;;;5119018;28;20204;-56
2021/12/28 11:54:26;;;;;;;39.70;23.50;;;3.30;99.90;;;;;;5112669;28;20175;-56
2021/12/28 11:57:02;;;;;;;34.70;22.13;;;3.00;99.90;;;;;;5104198;28;20225;-55
2021/12/28 11:59:29;;;;;;;35.30;22.13;;;3.00;99.90;;;;;;5104396;28;20177;-60
2021/12/28 12:02:04;;;;;;;35.93;22.33;;;3.00;99.90;;;;;;5106419;28;20236;-55
2021/12/28 12:04:32;;;;;;;39.50;23.10;;;3.10;99.90;;;;;;5119475;28;20208;-57
2021/12/28 12:07:10;;;;;;;35.37;21.00;;;3.10;99.90;;;;;;5114133;28;20161;-57
2021/12/28 12:09:52;;;;;;;33.73;22.33;;;3.20;99.90;;;;;;5117045;28;20763;-52
2021/12/28 12:12:43;;;;;;;32.83;21.27;;;3.20;99.90;;;;;;5116950;28;20165;-55
2021/12/28 12:15:11;;;;;;;38.10;22.57;;;3.20;99.90;;;;;;5121966;28;20169;-57
2021/12/28 12:17:44;;;;;;;36.90;21.93;;;3.20;99.90;;;;;;5119729;28;20625;-55
2021/12/28 12:20:16;;;;;;;34.97;21.33;;;3.40;99.90;;;;;;5112646;28;20215;-55
2021/12/28 12:22:44;;;;;;;35.97;22.00;;;3.50;99.90;;;;;;5121858;28;20229;-53
2021/12/28 12:25:13;;;;;;;31.60;20.67;;;4.60;99.90;;;;;;5105648;28;20235;-57
2021/12/28 12:28:03;;;;;;;31.73;20.40;;;5.30;99.90;;;;;;5097484;28;20562;-57
2021/12/28 12:30:28;;;;;;;32.03;18.93;;;4.20;99.90;;;;;;5099831;28;20194;-57
2021/12/28 12:33:04;;;;;;;36.03;20.63;;;5.10;99.90;;;;;;5101820;28;20226;-55
2021/12/28 12:35:33;;;;;;;31.23;20.40;;;4.60;99.90;;;;;;5119120;28;20192;-58
2021/12/28 12:38:01;;;;;;;35.77;21.97;;;3.90;99.90;;;;;;5120290;28;20184;-56